createdAt,value
2018-11-07T00:00:37.554Z,12.20
2018-11-07T00:01:44.578Z,11.30
2018-11-07T00:02:51.491Z,9.90
2018-11-07T00:03:58.271Z,10.80
2018-11-07T00:05:05.041Z,10.10
2018-11-07T00:06:11.856Z,10.70
2018-11-07T00:07:18.626Z,10.50
2018-11-07T00:08:25.526Z,9.90
2018-11-07T00:09:32.247Z,10.70
2018-11-07T00:10:39.038Z,11.30
2018-11-07T00:11:45.853Z,10.50
2018-11-07T00:12:52.707Z,9.80
2018-11-07T00:13:59.533Z,9.80
2018-11-07T00:15:06.301Z,11.10
2018-11-07T00:16:13.155Z,10.70
2018-11-07T00:17:19.959Z,10.00
2018-11-07T00:18:26.785Z,11.10
2018-11-07T00:19:33.593Z,10.80
2018-11-07T00:20:40.337Z,12.50
2018-11-07T00:21:47.185Z,12.10
2018-11-07T00:22:53.979Z,11.20
2018-11-07T00:24:00.733Z,12.40
2018-11-07T00:25:07.542Z,11.40
2018-11-07T00:26:14.686Z,10.90
2018-11-07T00:27:21.438Z,10.70
2018-11-07T00:28:28.238Z,10.10
2018-11-07T00:29:34.992Z,10.40
2018-11-07T00:30:41.747Z,9.80
2018-11-07T00:31:48.545Z,12.10
2018-11-07T00:32:55.358Z,9.60
2018-11-07T00:34:02.123Z,10.20
2018-11-07T00:35:09.098Z,10.70
2018-11-07T00:36:16.158Z,10.50
2018-11-07T00:37:22.935Z,11.30
2018-11-07T00:38:29.740Z,10.70
2018-11-07T00:39:36.527Z,11.90
2018-11-07T00:40:43.264Z,10.90
2018-11-07T00:41:50.019Z,11.10
2018-11-07T00:42:56.794Z,11.00
2018-11-07T00:44:03.528Z,11.20
2018-11-07T00:45:10.354Z,11.00
2018-11-07T00:46:17.487Z,11.40
2018-11-07T00:47:24.251Z,11.20
2018-11-07T00:48:30.978Z,10.40
2018-11-07T00:49:37.719Z,11.90
2018-11-07T00:50:44.451Z,10.90
2018-11-07T00:51:51.155Z,10.30
2018-11-07T00:52:57.966Z,9.70
2018-11-07T00:54:04.690Z,9.30
2018-11-07T00:55:11.431Z,9.70
2018-11-07T00:56:18.463Z,8.90
2018-11-07T00:57:25.222Z,10.20
2018-11-07T00:58:32.058Z,9.00
2018-11-07T00:59:38.806Z,9.80
2018-11-07T01:00:45.581Z,9.20
2018-11-07T01:01:52.414Z,8.80
2018-11-07T01:02:59.147Z,10.20
2018-11-07T01:04:05.890Z,9.40
2018-11-07T01:05:12.794Z,10.00
2018-11-07T01:06:19.727Z,9.40
2018-11-07T01:07:26.575Z,9.30
2018-11-07T01:08:33.315Z,9.10
2018-11-07T01:09:40.141Z,9.20
2018-11-07T01:10:46.919Z,9.20
2018-11-07T01:11:53.682Z,8.80
2018-11-07T01:13:00.434Z,8.00
2018-11-07T01:14:07.286Z,9.00
2018-11-07T01:15:14.250Z,9.40
2018-11-07T01:16:23.130Z,8.20
2018-11-07T01:17:27.861Z,8.10
2018-11-07T01:18:34.622Z,8.00
2018-11-07T01:19:41.669Z,9.10
2018-11-07T01:20:48.397Z,8.50
2018-11-07T01:21:55.171Z,7.90
2018-11-07T01:23:01.934Z,9.50
2018-11-07T01:24:08.771Z,8.90
2018-11-07T01:25:15.566Z,8.90
2018-11-07T01:26:22.314Z,8.60
2018-11-07T01:27:29.042Z,9.20
2018-11-07T01:28:35.810Z,8.50
2018-11-07T01:29:42.551Z,8.30
2018-11-07T01:30:49.291Z,8.60
2018-11-07T01:31:56.047Z,8.60
2018-11-07T01:33:02.787Z,8.30
2018-11-07T01:34:09.609Z,8.20
2018-11-07T01:35:16.347Z,7.60
2018-11-07T01:36:23.094Z,9.00
2018-11-07T01:37:29.838Z,8.40
2018-11-07T01:38:36.658Z,8.30
2018-11-07T01:39:43.435Z,8.60
2018-11-07T01:40:50.194Z,8.60
2018-11-07T01:41:57.056Z,8.40
2018-11-07T01:43:03.749Z,8.90
2018-11-07T01:44:10.558Z,9.00
2018-11-07T01:45:17.347Z,8.60
2018-11-07T01:46:24.069Z,8.00
2018-11-07T01:47:30.847Z,8.30
2018-11-07T01:48:37.602Z,8.70
2018-11-07T01:49:44.366Z,8.80
2018-11-07T01:50:51.119Z,9.30
2018-11-07T01:51:57.868Z,7.90
2018-11-07T01:53:04.610Z,8.70
2018-11-07T01:54:11.362Z,9.10
2018-11-07T01:55:18.174Z,8.80
2018-11-07T01:56:24.933Z,8.90
2018-11-07T01:57:31.806Z,8.70
2018-11-07T01:58:38.561Z,8.40
2018-11-07T01:59:45.394Z,8.20
2018-11-07T02:00:52.151Z,8.40
2018-11-07T02:01:58.890Z,8.30
2018-11-07T02:03:05.647Z,7.90
2018-11-07T02:04:12.467Z,7.90
2018-11-07T02:05:19.356Z,8.10
2018-11-07T02:06:26.193Z,8.20
2018-11-07T02:07:32.943Z,7.80
2018-11-07T02:08:43.198Z,8.20
2018-11-07T02:09:46.473Z,8.10
2018-11-07T02:10:53.219Z,9.00
2018-11-07T02:11:59.959Z,8.50
2018-11-07T02:13:06.729Z,8.20
2018-11-07T02:14:13.619Z,7.70
2018-11-07T02:15:20.385Z,8.30
2018-11-07T02:16:27.136Z,8.10
2018-11-07T02:17:33.962Z,7.80
2018-11-07T02:18:40.702Z,7.90
2018-11-07T02:19:47.486Z,7.70
2018-11-07T02:20:54.221Z,8.10
2018-11-07T02:22:00.962Z,7.10
2018-11-07T02:23:07.730Z,8.00
2018-11-07T02:24:14.569Z,7.80
2018-11-07T02:25:21.318Z,8.10
2018-11-07T02:26:28.140Z,8.10
2018-11-07T02:27:34.823Z,8.00
2018-11-07T02:28:41.582Z,8.00
2018-11-07T02:29:48.370Z,7.60
2018-11-07T02:30:55.087Z,7.70
2018-11-07T02:32:01.830Z,7.40
2018-11-07T02:33:08.699Z,8.10
2018-11-07T02:34:15.445Z,7.80
2018-11-07T02:35:22.224Z,7.60
2018-11-07T02:36:28.947Z,6.70
2018-11-07T02:37:35.694Z,7.50
2018-11-07T02:38:42.442Z,6.70
2018-11-07T02:39:49.209Z,7.00
2018-11-07T02:40:55.948Z,7.30
2018-11-07T02:42:02.877Z,7.40
2018-11-07T02:43:09.476Z,7.70
2018-11-07T02:44:16.246Z,7.50
2018-11-07T02:45:23.102Z,7.70
2018-11-07T02:46:29.850Z,7.10
2018-11-07T02:47:36.634Z,7.70
2018-11-07T02:48:43.800Z,7.40
2018-11-07T02:49:50.590Z,7.10
2018-11-07T02:50:57.339Z,7.40
2018-11-07T02:52:04.118Z,6.50
2018-11-07T02:53:10.982Z,7.20
2018-11-07T02:54:17.720Z,7.00
2018-11-07T02:55:24.489Z,7.80
2018-11-07T02:56:31.377Z,7.10
2018-11-07T02:57:38.113Z,7.40
2018-11-07T02:58:44.976Z,6.50
2018-11-07T02:59:51.765Z,7.10
2018-11-07T03:00:58.501Z,7.20
2018-11-07T03:02:05.295Z,6.70
2018-11-07T03:03:12.139Z,6.90
2018-11-07T03:04:18.898Z,6.80
2018-11-07T03:05:25.663Z,6.40
2018-11-07T03:06:32.512Z,6.60
2018-11-07T03:07:39.287Z,7.00
2018-11-07T03:08:46.269Z,7.20
2018-11-07T03:09:53.080Z,6.80
2018-11-07T03:10:59.845Z,6.40
2018-11-07T03:12:06.878Z,7.20
2018-11-07T03:13:13.634Z,6.60
2018-11-07T03:14:20.391Z,6.80
2018-11-07T03:15:27.138Z,6.90
2018-11-07T03:16:33.882Z,5.90
2018-11-07T03:17:40.801Z,6.70
2018-11-07T03:18:47.564Z,6.70
2018-11-07T03:19:54.369Z,6.50
2018-11-07T03:21:01.183Z,6.50
2018-11-07T03:22:07.949Z,7.00
2018-11-07T03:23:14.702Z,6.40
2018-11-07T03:24:21.430Z,7.00
2018-11-07T03:25:28.193Z,7.00
2018-11-07T03:26:35.026Z,6.20
2018-11-07T03:27:41.783Z,6.30
2018-11-07T03:28:48.558Z,6.40
2018-11-07T03:29:55.323Z,6.30
2018-11-07T03:31:02.111Z,6.60
2018-11-07T03:32:08.936Z,6.20
2018-11-07T03:33:15.694Z,6.20
2018-11-07T03:34:22.487Z,6.00
2018-11-07T03:35:29.316Z,6.00
2018-11-07T03:36:36.058Z,6.10
2018-11-07T03:37:42.776Z,6.20
2018-11-07T03:38:49.582Z,5.60
2018-11-07T03:39:56.472Z,6.20
2018-11-07T03:41:03.186Z,5.80
2018-11-07T03:42:09.999Z,6.30
2018-11-07T03:43:16.778Z,6.10
2018-11-07T03:44:23.629Z,6.00
2018-11-07T03:45:30.506Z,5.70
2018-11-07T03:46:37.342Z,5.70
2018-11-07T03:47:44.083Z,6.00
2018-11-07T03:48:50.898Z,6.00
2018-11-07T03:49:57.627Z,6.50
2018-11-07T03:51:04.403Z,5.80
2018-11-07T03:52:11.366Z,5.70
2018-11-07T03:53:18.237Z,5.90
2018-11-07T03:54:24.981Z,5.20
2018-11-07T03:55:31.711Z,5.60
2018-11-07T03:56:38.478Z,5.40
2018-11-07T03:57:45.225Z,5.70
2018-11-07T03:58:52.063Z,5.20
2018-11-07T03:59:58.835Z,5.20
2018-11-07T04:01:05.638Z,5.30
2018-11-07T04:02:12.459Z,5.30
2018-11-07T04:03:19.263Z,5.20
2018-11-07T04:04:26.039Z,5.50
2018-11-07T04:05:32.829Z,5.50
2018-11-07T04:06:39.612Z,5.80
2018-11-07T04:07:46.362Z,5.40
2018-11-07T04:08:53.185Z,6.60
2018-11-07T04:09:59.942Z,8.20
2018-11-07T04:11:06.951Z,8.70
2018-11-07T04:12:13.744Z,8.90
2018-11-07T04:13:20.534Z,8.00
2018-11-07T04:14:27.342Z,7.80
2018-11-07T04:15:34.211Z,6.50
2018-11-07T04:16:41.137Z,6.80
2018-11-07T04:17:47.980Z,6.80
2018-11-07T04:18:54.765Z,6.90
2018-11-07T04:20:01.594Z,6.60
2018-11-07T04:21:08.661Z,6.90
2018-11-07T04:22:15.594Z,7.10
2018-11-07T04:23:22.426Z,7.00
2018-11-07T04:24:29.233Z,6.30
2018-11-07T04:25:36.026Z,6.80
2018-11-07T04:26:42.886Z,7.20
2018-11-07T04:27:49.722Z,7.10
2018-11-07T04:28:56.610Z,7.10
2018-11-07T04:30:03.440Z,7.40
2018-11-07T04:31:10.106Z,7.30
2018-11-07T04:32:16.868Z,7.60
2018-11-07T04:33:23.642Z,7.40
2018-11-07T04:34:30.435Z,8.00
2018-11-07T04:35:37.234Z,7.90
2018-11-07T04:36:44.028Z,8.30
2018-11-07T04:37:50.821Z,7.30
2018-11-07T04:38:57.679Z,7.80
2018-11-07T04:40:04.443Z,7.50
2018-11-07T04:41:11.204Z,6.90
2018-11-07T04:42:18.040Z,7.30
2018-11-07T04:43:24.872Z,7.50
2018-11-07T04:44:31.672Z,7.40
2018-11-07T04:45:38.559Z,6.60
2018-11-07T04:46:45.438Z,7.70
2018-11-07T04:47:52.305Z,6.40
2018-11-07T04:48:59.189Z,7.00
2018-11-07T04:50:06.064Z,6.80
2018-11-07T04:51:13.086Z,6.90
2018-11-07T04:52:19.944Z,6.10
2018-11-07T04:53:26.766Z,6.50
2018-11-07T04:54:33.583Z,6.00
2018-11-07T04:55:40.409Z,6.20
2018-11-07T04:56:47.207Z,6.40
2018-11-07T04:57:54.011Z,5.70
2018-11-07T04:59:00.846Z,5.80
2018-11-07T05:00:07.785Z,6.20
2018-11-07T05:01:14.403Z,6.20
2018-11-07T05:02:21.243Z,6.10
2018-11-07T05:03:28.266Z,5.80
2018-11-07T05:04:35.038Z,5.60
2018-11-07T05:05:42.110Z,6.10
2018-11-07T05:06:48.847Z,6.50
2018-11-07T05:07:55.766Z,8.10
2018-11-07T05:09:02.480Z,7.80
2018-11-07T05:10:09.278Z,6.60
2018-11-07T05:11:16.301Z,6.50
2018-11-07T05:12:23.086Z,6.10
2018-11-07T05:13:29.922Z,6.80
2018-11-07T05:14:36.727Z,6.70
2018-11-07T05:15:43.580Z,6.40
2018-11-07T05:16:50.397Z,6.60
2018-11-07T05:17:57.209Z,6.20
2018-11-07T05:19:04.098Z,6.50
2018-11-07T05:20:10.947Z,6.50
2018-11-07T05:21:17.763Z,6.20
2018-11-07T05:22:24.662Z,6.40
2018-11-07T05:23:31.505Z,6.60
2018-11-07T05:24:38.342Z,6.50
2018-11-07T05:25:45.130Z,6.00
2018-11-07T05:26:51.918Z,5.90
2018-11-07T05:27:58.818Z,5.30
2018-11-07T05:29:05.655Z,5.40
2018-11-07T05:30:12.549Z,5.50
2018-11-07T05:31:19.403Z,5.90
2018-11-07T05:32:26.272Z,5.20
2018-11-07T05:33:33.179Z,5.20
2018-11-07T05:34:39.970Z,5.30
2018-11-07T05:35:46.734Z,5.70
2018-11-07T05:36:53.549Z,5.50
2018-11-07T05:38:00.352Z,5.50
2018-11-07T05:39:07.375Z,5.20
2018-11-07T05:40:13.962Z,5.60
2018-11-07T05:41:20.893Z,5.60
2018-11-07T05:42:27.601Z,5.80
2018-11-07T05:43:34.435Z,5.20
2018-11-07T05:44:41.235Z,5.00
2018-11-07T05:45:48.124Z,6.60
2018-11-07T05:46:55.010Z,5.50
2018-11-07T05:48:01.909Z,5.40
2018-11-07T05:49:08.843Z,4.60
2018-11-07T05:50:15.618Z,5.00
2018-11-07T05:51:22.419Z,5.20
2018-11-07T05:52:29.230Z,4.80
2018-11-07T05:53:36.026Z,4.90
2018-11-07T05:54:42.855Z,6.10
2018-11-07T05:55:49.626Z,5.20
2018-11-07T05:56:56.411Z,4.70
2018-11-07T05:58:03.189Z,4.80
2018-11-07T05:59:10.000Z,5.20
2018-11-07T06:00:16.810Z,5.20
2018-11-07T06:01:25.505Z,5.40
2018-11-07T06:02:30.733Z,5.60
2018-11-07T06:03:37.538Z,5.40
2018-11-07T06:04:44.339Z,6.60
2018-11-07T06:05:51.162Z,7.00
2018-11-07T06:06:57.926Z,6.50
2018-11-07T06:08:04.727Z,6.60
2018-11-07T06:09:11.523Z,6.30
2018-11-07T06:10:18.286Z,6.20
2018-11-07T06:11:25.112Z,6.20
2018-11-07T06:12:31.849Z,5.90
2018-11-07T06:13:38.630Z,5.20
2018-11-07T06:14:45.540Z,5.50
2018-11-07T06:15:52.294Z,5.40
2018-11-07T06:16:59.094Z,5.60
2018-11-07T06:18:05.908Z,5.70
2018-11-07T06:19:12.679Z,6.10
2018-11-07T06:20:19.497Z,6.20
2018-11-07T06:21:26.301Z,5.60
2018-11-07T06:22:33.102Z,5.20
2018-11-07T06:23:39.942Z,5.30
2018-11-07T06:24:46.835Z,6.60
2018-11-07T06:25:53.614Z,5.60
2018-11-07T06:27:00.446Z,6.00
2018-11-07T06:28:07.400Z,5.50
2018-11-07T06:29:14.253Z,5.10
2018-11-07T06:30:21.042Z,6.00
2018-11-07T06:31:27.811Z,5.20
2018-11-07T06:32:34.646Z,5.00
2018-11-07T06:33:41.458Z,5.40
2018-11-07T06:34:48.694Z,5.10
2018-11-07T06:35:55.038Z,4.70
2018-11-07T06:37:01.827Z,5.50
2018-11-07T06:38:08.848Z,5.50
2018-11-07T06:39:15.906Z,4.90
2018-11-07T06:40:22.682Z,5.50
2018-11-07T06:41:29.518Z,4.50
2018-11-07T06:42:36.394Z,5.00
2018-11-07T06:43:43.318Z,4.50
2018-11-07T06:44:50.173Z,4.20
2018-11-07T06:45:57.307Z,4.50
2018-11-07T06:47:04.115Z,4.00
2018-11-07T06:48:10.927Z,4.70
2018-11-07T06:49:17.747Z,4.60
2018-11-07T06:50:24.506Z,4.10
2018-11-07T06:51:31.262Z,5.40
2018-11-07T06:52:38.080Z,3.80
2018-11-07T06:53:44.905Z,4.60
2018-11-07T06:54:51.773Z,4.20
2018-11-07T06:55:58.550Z,4.40
2018-11-07T06:57:05.323Z,4.50
2018-11-07T06:58:12.103Z,3.80
2018-11-07T06:59:18.910Z,3.70
2018-11-07T07:00:25.690Z,4.80
2018-11-07T07:01:32.705Z,4.60
2018-11-07T07:02:39.484Z,4.90
2018-11-07T07:03:46.419Z,4.80
2018-11-07T07:04:53.281Z,4.80
2018-11-07T07:06:00.167Z,4.70
2018-11-07T07:07:06.956Z,4.40
2018-11-07T07:08:13.738Z,4.30
2018-11-07T07:09:20.554Z,4.60
2018-11-07T07:10:27.318Z,6.40
2018-11-07T07:11:34.061Z,7.50
2018-11-07T07:12:40.962Z,7.10
2018-11-07T07:13:47.819Z,7.30
2018-11-07T07:14:54.665Z,7.00
2018-11-07T07:16:01.419Z,5.40
2018-11-07T07:17:08.287Z,4.50
2018-11-07T07:18:15.141Z,5.50
2018-11-07T07:19:21.842Z,5.50
2018-11-07T07:20:28.578Z,4.70
2018-11-07T07:21:35.399Z,5.50
2018-11-07T07:22:42.158Z,5.80
2018-11-07T07:23:49.198Z,5.70
2018-11-07T07:24:56.010Z,5.70
2018-11-07T07:26:02.776Z,5.50
2018-11-07T07:27:09.614Z,6.20
2018-11-07T07:28:16.403Z,5.70
2018-11-07T07:29:23.172Z,5.90
2018-11-07T07:30:30.011Z,6.30
2018-11-07T07:31:36.782Z,5.60
2018-11-07T07:32:43.535Z,5.40
2018-11-07T07:33:50.687Z,4.80
2018-11-07T07:34:57.443Z,5.40
2018-11-07T07:36:04.197Z,6.00
2018-11-07T07:37:10.969Z,5.90
2018-11-07T07:38:17.803Z,5.60
2018-11-07T07:39:24.566Z,5.60
2018-11-07T07:40:31.347Z,6.30
2018-11-07T07:41:38.182Z,5.80
2018-11-07T07:42:44.983Z,6.90
2018-11-07T07:43:51.672Z,6.20
2018-11-07T07:44:58.565Z,6.60
2018-11-07T07:46:05.347Z,6.90
2018-11-07T07:47:12.134Z,6.60
2018-11-07T07:48:18.947Z,6.70
2018-11-07T07:49:25.824Z,6.30
2018-11-07T07:50:32.706Z,6.10
2018-11-07T07:51:39.486Z,6.60
2018-11-07T07:52:46.213Z,6.60
2018-11-07T07:53:52.975Z,6.80
2018-11-07T07:54:59.730Z,6.60
2018-11-07T07:56:06.534Z,6.80
2018-11-07T07:57:13.285Z,6.70
2018-11-07T07:58:20.130Z,6.30
2018-11-07T07:59:26.878Z,5.90
2018-11-07T08:00:33.663Z,6.70
2018-11-07T08:01:40.413Z,6.00
2018-11-07T08:02:47.166Z,7.10
2018-11-07T08:03:54.074Z,6.80
2018-11-07T08:05:00.921Z,6.00
2018-11-07T08:06:07.872Z,5.40
2018-11-07T08:07:14.576Z,5.90
2018-11-07T08:08:21.327Z,6.30
2018-11-07T08:09:28.102Z,5.90
2018-11-07T08:10:34.890Z,5.70
2018-11-07T08:11:41.722Z,7.10
2018-11-07T08:12:48.493Z,8.10
2018-11-07T08:13:55.347Z,8.10
2018-11-07T08:15:02.115Z,8.20
2018-11-07T08:16:08.976Z,8.20
2018-11-07T08:17:15.730Z,8.60
2018-11-07T08:18:22.512Z,8.60
2018-11-07T08:19:29.273Z,9.60
2018-11-07T08:20:36.039Z,8.40
2018-11-07T08:21:42.918Z,8.60
2018-11-07T08:22:49.690Z,8.40
2018-11-07T08:23:56.423Z,7.70
2018-11-07T08:25:03.282Z,8.20
2018-11-07T08:26:10.114Z,7.40
2018-11-07T08:27:16.945Z,7.20
2018-11-07T08:28:23.690Z,7.10
2018-11-07T08:29:30.458Z,7.20
2018-11-07T08:30:37.245Z,7.10
2018-11-07T08:31:44.049Z,6.40
2018-11-07T08:32:50.815Z,6.90
2018-11-07T08:33:57.541Z,7.30
2018-11-07T08:35:04.447Z,7.40
2018-11-07T08:36:11.256Z,6.50
2018-11-07T08:37:18.018Z,6.60
2018-11-07T08:38:24.922Z,6.20
2018-11-07T08:39:31.688Z,6.00
2018-11-07T08:40:38.444Z,6.10
2018-11-07T08:41:45.224Z,5.70
2018-11-07T08:42:52.064Z,4.10
2018-11-07T08:43:58.930Z,4.50
2018-11-07T08:45:05.710Z,4.30
2018-11-07T08:46:12.744Z,4.20
2018-11-07T08:47:19.628Z,3.90
2018-11-07T08:48:26.431Z,4.00
2018-11-07T08:49:33.174Z,4.20
2018-11-07T08:50:39.983Z,4.50
2018-11-07T08:51:46.782Z,4.30
2018-11-07T08:52:53.539Z,4.00
2018-11-07T08:54:00.326Z,4.00
2018-11-07T08:55:07.171Z,4.00
2018-11-07T08:56:14.210Z,4.60
2018-11-07T08:57:20.938Z,4.70
2018-11-07T08:58:27.699Z,3.90
2018-11-07T08:59:34.490Z,4.10
2018-11-07T09:00:41.302Z,3.60
2018-11-07T09:01:48.063Z,4.20
2018-11-07T09:02:54.862Z,4.30
2018-11-07T09:04:01.691Z,4.40
2018-11-07T09:05:08.546Z,4.70
2018-11-07T09:06:15.264Z,4.20
2018-11-07T09:07:22.066Z,4.70
2018-11-07T09:08:28.801Z,4.00
2018-11-07T09:09:35.549Z,4.40
2018-11-07T09:10:42.320Z,4.00
2018-11-07T09:11:49.174Z,3.60
2018-11-07T09:12:55.898Z,4.00
2018-11-07T09:14:02.664Z,3.80
2018-11-07T09:15:09.474Z,4.00
2018-11-07T09:16:16.408Z,3.50
2018-11-07T09:17:23.335Z,3.50
2018-11-07T09:18:30.105Z,3.30
2018-11-07T09:19:36.883Z,3.50
2018-11-07T09:20:43.612Z,3.80
2018-11-07T09:21:50.409Z,3.60
2018-11-07T09:22:57.215Z,4.00
2018-11-07T09:24:04.008Z,3.30
2018-11-07T09:25:10.742Z,3.70
2018-11-07T09:26:17.482Z,3.50
2018-11-07T09:27:24.414Z,3.30
2018-11-07T09:28:31.179Z,3.40
2018-11-07T09:29:38.244Z,3.60
2018-11-07T09:30:45.030Z,3.50
2018-11-07T09:31:51.782Z,3.80
2018-11-07T09:32:58.763Z,3.50
2018-11-07T09:34:05.498Z,3.50
2018-11-07T09:35:12.343Z,3.70
2018-11-07T09:36:19.438Z,3.50
2018-11-07T09:37:26.279Z,3.30
2018-11-07T09:38:33.014Z,3.70
2018-11-07T09:39:39.857Z,3.40
2018-11-07T09:40:46.602Z,3.70
2018-11-07T09:41:53.451Z,3.30
2018-11-07T09:43:00.286Z,3.20
2018-11-07T09:44:07.067Z,3.70
2018-11-07T09:45:13.931Z,3.00
2018-11-07T09:46:20.878Z,3.30
2018-11-07T09:47:27.777Z,3.00
2018-11-07T09:48:34.575Z,3.00
2018-11-07T09:49:41.470Z,2.80
2018-11-07T09:50:48.287Z,2.60
2018-11-07T09:51:55.051Z,3.30
2018-11-07T09:53:01.802Z,2.70
2018-11-07T09:54:08.625Z,3.00
2018-11-07T09:55:15.386Z,2.60
2018-11-07T09:56:22.276Z,2.80
2018-11-07T09:57:29.014Z,3.00
2018-11-07T09:58:35.782Z,3.00
2018-11-07T09:59:42.570Z,3.10
2018-11-07T10:00:49.350Z,2.80
2018-11-07T10:01:56.142Z,2.70
2018-11-07T10:03:02.915Z,3.00
2018-11-07T10:04:09.730Z,3.00
2018-11-07T10:05:16.466Z,3.00
2018-11-07T10:06:23.501Z,2.90
2018-11-07T10:07:30.230Z,2.90
2018-11-07T10:08:37.030Z,3.20
2018-11-07T10:09:43.826Z,3.20
2018-11-07T10:10:50.550Z,3.00
2018-11-07T10:11:57.291Z,2.30
2018-11-07T10:13:04.111Z,2.80
2018-11-07T10:14:10.927Z,3.10
2018-11-07T10:15:17.806Z,2.80
2018-11-07T10:16:24.550Z,2.70
2018-11-07T10:17:31.278Z,3.30
2018-11-07T10:18:38.158Z,2.60
2018-11-07T10:19:44.935Z,2.70
2018-11-07T10:20:51.678Z,2.80
2018-11-07T10:21:58.450Z,2.40
2018-11-07T10:23:05.190Z,2.40
2018-11-07T10:24:11.935Z,2.20
2018-11-07T10:25:18.678Z,2.00
2018-11-07T10:26:25.747Z,2.40
2018-11-07T10:27:33.025Z,2.40
2018-11-07T10:28:39.615Z,2.10
2018-11-07T10:29:47.759Z,2.10
2018-11-07T10:30:53.267Z,2.20
2018-11-07T10:32:00.127Z,2.30
2018-11-07T10:33:06.902Z,2.70
2018-11-07T10:34:13.651Z,2.00
2018-11-07T10:35:20.497Z,2.20
2018-11-07T10:36:27.245Z,2.40
2018-11-07T10:37:34.022Z,2.10
2018-11-07T10:38:40.854Z,2.30
2018-11-07T10:39:47.552Z,1.80
2018-11-07T10:40:54.369Z,2.20
2018-11-07T10:42:01.127Z,2.00
2018-11-07T10:43:08.070Z,2.10
2018-11-07T10:44:14.908Z,1.90
2018-11-07T10:45:21.657Z,2.10
2018-11-07T10:46:28.400Z,2.30
2018-11-07T10:47:35.228Z,2.20
2018-11-07T10:48:42.266Z,2.20
2018-11-07T10:49:49.283Z,2.30
2018-11-07T10:50:56.107Z,2.30
2018-11-07T10:52:02.907Z,2.20
2018-11-07T10:53:09.738Z,2.60
2018-11-07T10:54:18.131Z,2.10
2018-11-07T10:55:23.507Z,2.00
2018-11-07T10:56:30.475Z,2.20
2018-11-07T10:57:37.741Z,1.90
2018-11-07T10:58:44.038Z,1.90
2018-11-07T10:59:50.790Z,2.80
2018-11-07T11:00:57.542Z,2.10
2018-11-07T11:02:04.546Z,2.10
2018-11-07T11:03:11.622Z,2.00
2018-11-07T11:04:18.533Z,1.90
2018-11-07T11:05:25.442Z,2.10
2018-11-07T11:06:32.212Z,2.10
2018-11-07T11:07:39.018Z,2.20
2018-11-07T11:08:45.883Z,2.00
2018-11-07T11:09:52.680Z,2.30
2018-11-07T11:10:59.477Z,2.10
2018-11-07T11:12:06.236Z,2.00
2018-11-07T11:13:13.030Z,2.10
2018-11-07T11:14:19.816Z,2.10
2018-11-07T11:15:26.814Z,1.90
2018-11-07T11:16:33.583Z,1.70
2018-11-07T11:17:40.413Z,2.10
2018-11-07T11:18:47.186Z,2.10
2018-11-07T11:19:53.961Z,2.00
2018-11-07T11:21:00.768Z,1.90
2018-11-07T11:22:07.930Z,2.10
2018-11-07T11:23:14.747Z,2.00
2018-11-07T11:24:21.637Z,2.30
2018-11-07T11:25:28.402Z,2.20
2018-11-07T11:26:35.259Z,2.30
2018-11-07T11:27:42.045Z,2.00
2018-11-07T11:28:48.821Z,2.10
2018-11-07T11:29:55.626Z,2.20
2018-11-07T11:31:02.458Z,2.00
2018-11-07T11:32:09.280Z,1.80
2018-11-07T11:33:16.020Z,1.80
2018-11-07T11:34:22.932Z,1.70
2018-11-07T11:35:29.827Z,1.90
2018-11-07T11:36:36.593Z,1.90
2018-11-07T11:37:43.353Z,1.90
2018-11-07T11:38:50.143Z,1.90
2018-11-07T11:39:58.091Z,2.00
2018-11-07T11:41:03.898Z,1.90
2018-11-07T11:42:10.737Z,2.30
2018-11-07T11:43:17.508Z,1.90
2018-11-07T11:44:24.310Z,1.90
2018-11-07T11:45:31.290Z,1.80
2018-11-07T11:46:38.094Z,1.90
2018-11-07T11:47:45.028Z,2.00
2018-11-07T11:48:52.096Z,2.00
2018-11-07T11:49:59.136Z,1.80
2018-11-07T11:51:06.010Z,1.90
2018-11-07T11:52:13.186Z,1.90
2018-11-07T11:53:19.835Z,2.20
2018-11-07T11:54:26.630Z,2.00
2018-11-07T11:55:33.518Z,2.10
2018-11-07T11:56:40.391Z,2.00
2018-11-07T11:57:47.162Z,2.10
2018-11-07T11:58:54.093Z,2.00
2018-11-07T12:00:01.322Z,2.10
2018-11-07T12:01:08.139Z,2.20
2018-11-07T12:02:16.140Z,2.20
2018-11-07T12:03:22.250Z,2.00
2018-11-07T12:04:29.030Z,2.00
2018-11-07T12:05:36.301Z,2.00
2018-11-07T12:06:42.684Z,2.20
2018-11-07T12:07:49.426Z,2.40
2018-11-07T12:08:56.401Z,2.40
2018-11-07T12:10:03.151Z,2.20
2018-11-07T12:11:10.048Z,2.20
2018-11-07T12:12:16.837Z,2.10
2018-11-07T12:13:23.665Z,2.00
2018-11-07T12:14:30.507Z,2.30
2018-11-07T12:15:37.267Z,2.00
2018-11-07T12:16:44.032Z,2.10
2018-11-07T12:17:50.976Z,2.00
2018-11-07T12:18:57.842Z,1.80
2018-11-07T12:20:04.602Z,2.00
2018-11-07T12:21:11.501Z,2.00
2018-11-07T12:22:18.308Z,2.10
2018-11-07T12:23:25.498Z,2.00
2018-11-07T12:24:35.038Z,2.20
2018-11-07T12:25:38.637Z,1.90
2018-11-07T12:26:46.602Z,1.90
2018-11-07T12:27:52.446Z,1.90
2018-11-07T12:28:59.186Z,1.80
2018-11-07T12:30:05.960Z,1.90
2018-11-07T12:31:12.943Z,1.80
2018-11-07T12:32:19.674Z,2.10
2018-11-07T12:33:26.493Z,2.10
2018-11-07T12:34:33.334Z,1.90
2018-11-07T12:35:40.303Z,2.00
2018-11-07T12:36:47.034Z,2.10
2018-11-07T12:37:53.795Z,1.90
2018-11-07T12:39:01.330Z,2.00
2018-11-07T12:40:07.536Z,2.10
2018-11-07T12:41:14.943Z,2.10
2018-11-07T12:42:21.270Z,2.40
2018-11-07T12:43:28.272Z,1.90
2018-11-07T12:44:35.090Z,2.10
2018-11-07T12:45:41.989Z,1.90
2018-11-07T12:46:48.775Z,2.20
2018-11-07T12:47:55.548Z,1.90
2018-11-07T12:49:02.297Z,2.00
2018-11-07T12:50:09.594Z,2.00
2018-11-07T12:51:16.564Z,2.10
2018-11-07T12:52:23.319Z,2.10
2018-11-07T12:53:30.082Z,1.90
2018-11-07T12:54:36.966Z,1.90
2018-11-07T12:55:43.829Z,1.90
2018-11-07T12:56:50.695Z,2.10
2018-11-07T12:57:57.583Z,1.80
2018-11-07T12:59:04.249Z,1.80
2018-11-07T13:00:11.091Z,1.90
2018-11-07T13:01:18.192Z,1.70
2018-11-07T13:02:24.938Z,2.00
2018-11-07T13:03:31.699Z,1.70
2018-11-07T13:04:38.504Z,2.00
2018-11-07T13:05:45.218Z,1.70
2018-11-07T13:06:52.018Z,1.70
2018-11-07T13:07:58.947Z,1.90
2018-11-07T13:09:05.737Z,1.90
2018-11-07T13:10:12.999Z,2.00
2018-11-07T13:11:19.918Z,1.90
2018-11-07T13:12:26.622Z,1.90
2018-11-07T13:13:33.394Z,1.90
2018-11-07T13:14:40.223Z,2.80
2018-11-07T13:15:47.029Z,2.30
2018-11-07T13:16:53.860Z,1.90
2018-11-07T13:18:00.649Z,1.90
2018-11-07T13:19:07.402Z,1.70
2018-11-07T13:20:14.199Z,1.90
2018-11-07T13:21:21.286Z,2.60
2018-11-07T13:22:28.128Z,2.00
2018-11-07T13:23:34.901Z,2.10
2018-11-07T13:24:41.626Z,2.00
2018-11-07T13:25:48.459Z,1.90
2018-11-07T13:26:55.249Z,2.10
2018-11-07T13:28:02.005Z,1.80
2018-11-07T13:29:08.926Z,1.80
2018-11-07T13:30:15.728Z,2.10
2018-11-07T13:31:22.883Z,1.80
2018-11-07T13:32:29.621Z,1.80
2018-11-07T13:33:36.371Z,2.00
2018-11-07T13:34:43.145Z,1.90
2018-11-07T13:35:49.890Z,2.00
2018-11-07T13:36:56.735Z,2.00
2018-11-07T13:38:03.543Z,1.90
2018-11-07T13:39:10.453Z,1.80
2018-11-07T13:40:16.973Z,2.20
2018-11-07T13:41:24.002Z,1.70
2018-11-07T13:42:30.732Z,1.90
2018-11-07T13:43:37.519Z,2.00
2018-11-07T13:44:44.275Z,1.90
2018-11-07T13:45:51.095Z,2.30
2018-11-07T13:46:57.905Z,2.00
2018-11-07T13:48:04.643Z,2.00
2018-11-07T13:49:11.379Z,2.00
2018-11-07T13:50:18.139Z,2.00
2018-11-07T13:51:24.823Z,2.20
2018-11-07T13:52:31.611Z,1.90
2018-11-07T13:53:38.466Z,2.00
2018-11-07T13:54:45.173Z,1.90
2018-11-07T13:55:52.002Z,2.00
2018-11-07T13:56:58.758Z,2.00
2018-11-07T13:58:05.481Z,2.00
2018-11-07T13:59:12.258Z,2.10
2018-11-07T14:00:19.022Z,2.00
2018-11-07T14:01:25.982Z,1.90
2018-11-07T14:02:33.031Z,2.20
2018-11-07T14:03:39.812Z,2.00
2018-11-07T14:04:46.571Z,1.90
2018-11-07T14:05:53.374Z,2.10
2018-11-07T14:07:00.151Z,2.20
2018-11-07T14:08:06.906Z,2.30
2018-11-07T14:09:13.643Z,2.20
2018-11-07T14:10:20.487Z,2.30
2018-11-07T14:11:27.533Z,2.10
2018-11-07T14:12:34.298Z,2.30
2018-11-07T14:13:41.098Z,2.10
2018-11-07T14:14:47.911Z,2.10
2018-11-07T14:15:54.714Z,1.70
2018-11-07T14:17:01.478Z,2.40
2018-11-07T14:18:08.275Z,2.10
2018-11-07T14:19:17.981Z,2.40
2018-11-07T14:20:21.877Z,2.20
2018-11-07T14:21:28.763Z,2.00
2018-11-07T14:22:35.484Z,1.90
2018-11-07T14:23:42.327Z,2.10
2018-11-07T14:24:49.131Z,2.00
2018-11-07T14:25:56.055Z,2.00
2018-11-07T14:27:02.878Z,2.20
2018-11-07T14:28:09.921Z,1.90
2018-11-07T14:29:16.428Z,2.20
2018-11-07T14:30:23.197Z,2.10
2018-11-07T14:31:30.039Z,1.80
2018-11-07T14:32:36.895Z,2.00
2018-11-07T14:33:44.071Z,2.20
2018-11-07T14:34:51.034Z,2.20
2018-11-07T14:35:57.773Z,2.10
2018-11-07T14:37:04.574Z,2.20
2018-11-07T14:38:11.326Z,2.00
2018-11-07T14:39:18.194Z,2.00
2018-11-07T14:40:24.892Z,2.20
2018-11-07T14:41:31.786Z,2.30
2018-11-07T14:42:38.742Z,2.00
2018-11-07T14:43:45.376Z,2.20
2018-11-07T14:44:52.638Z,1.90
2018-11-07T14:45:59.486Z,1.90
2018-11-07T14:47:06.274Z,2.10
2018-11-07T14:48:13.178Z,2.10